Terminal Aerodrome Forecast
Issued by NWS

Home | Current Version | Previous Version | Text Only | Print | Product List | Glossary On
Versions: 1 2 3 4 5 6 7 8 9 10 11 12 13 14 15 16 17 18 19 20 21 22 23 24 25
331
FTUS41 KGYX 182332
TAFLEB
TAF
KLEB 182332Z 1900/1924 VRB03KT P6SM BKN025 OVC040
      TEMPO 1900/1904 3SM -SHSN BR BKN015 OVC040
     FM190400 VRB03KT 2SM BR OVC012
      TEMPO 1904/1908 1 1/2SM -SN BR VV007
     FM191200 VRB03KT 5SM BR SCT015 BKN025 OVC040
     FM191500 VRB03KT P6SM BKN040 OVC060=

USA.gov is the U.S. government's official web portal to all federal, state and local government web resources and services.